createdAt,value
2023-02-12T00:00:52.217Z,5.30
2023-02-12T00:03:19.234Z,5.30
2023-02-12T00:05:46.180Z,5.30
2023-02-12T00:08:14.390Z,5.30
2023-02-12T00:10:43.452Z,5.40
2023-02-12T00:13:11.674Z,5.30
2023-02-12T00:15:40.831Z,5.40
2023-02-12T00:18:08.184Z,5.40
2023-02-12T00:20:35.199Z,5.40
2023-02-12T00:23:02.106Z,5.30
2023-02-12T00:25:29.070Z,5.30
2023-02-12T00:27:56.120Z,5.30
2023-02-12T00:30:23.119Z,5.20
2023-02-12T00:32:50.081Z,5.10
2023-02-12T00:35:17.112Z,5.10
2023-02-12T00:37:44.031Z,5.20
2023-02-12T00:40:11.351Z,5.20
2023-02-12T00:42:38.193Z,5.20
2023-02-12T00:45:05.437Z,5.20
2023-02-12T00:47:32.359Z,5.10
2023-02-12T00:49:59.321Z,5.10
2023-02-12T00:52:26.287Z,5.10
2023-02-12T00:54:53.179Z,5.10
2023-02-12T00:57:20.128Z,5.10
2023-02-12T00:59:47.927Z,5.00
2023-02-12T01:02:14.910Z,5.00
2023-02-12T01:04:41.982Z,5.00
2023-02-12T01:07:09.854Z,5.00
2023-02-12T01:09:37.401Z,5.00
2023-02-12T01:12:04.648Z,5.00
2023-02-12T01:14:31.695Z,5.00
2023-02-12T01:16:58.703Z,4.90
2023-02-12T01:19:26.126Z,4.90
2023-02-12T01:21:53.127Z,4.90
2023-02-12T01:24:20.108Z,5.00
2023-02-12T01:26:47.028Z,5.00
2023-02-12T01:29:13.972Z,5.00
2023-02-12T01:31:42.577Z,5.10
2023-02-12T01:34:11.699Z,5.10
2023-02-12T01:36:38.616Z,5.20
2023-02-12T01:39:06.818Z,5.10
2023-02-12T01:41:36.823Z,5.00
2023-02-12T01:44:18.601Z,5.00
2023-02-12T01:46:47.057Z,5.00
2023-02-12T01:49:26.665Z,4.90
2023-02-12T01:52:03.025Z,4.90
2023-02-12T01:54:31.318Z,4.90
2023-02-12T01:57:00.972Z,4.80
2023-02-12T01:59:28.741Z,4.80
2023-02-12T02:01:55.765Z,4.90
2023-02-12T02:04:28.226Z,4.90
2023-02-12T02:07:01.571Z,4.90
2023-02-12T02:09:30.691Z,4.80
2023-02-12T02:12:16.287Z,4.80
2023-02-12T02:14:45.131Z,4.80
2023-02-12T02:17:17.908Z,4.90
2023-02-12T02:19:57.172Z,5.00
2023-02-12T02:22:39.413Z,5.00
2023-02-12T02:25:48.396Z,5.00
2023-02-12T02:28:38.683Z,4.90
2023-02-12T02:31:16.971Z,4.90
2023-02-12T02:34:14.524Z,4.80
2023-02-12T02:37:12.840Z,4.70
2023-02-12T02:39:48.413Z,4.80
2023-02-12T02:42:21.487Z,4.80
2023-02-12T02:45:03.492Z,4.80
2023-02-12T02:47:38.886Z,4.90
2023-02-12T02:50:15.925Z,4.80
2023-02-12T02:53:04.735Z,4.80
2023-02-12T02:55:39.102Z,4.80
2023-02-12T02:58:12.232Z,4.70
2023-02-12T03:00:55.832Z,4.70
2023-02-12T03:03:55.444Z,4.70
2023-02-12T03:06:45.148Z,4.70
2023-02-12T03:09:31.165Z,4.70
2023-02-12T03:12:04.951Z,4.70
2023-02-12T03:14:43.458Z,4.80
2023-02-12T03:17:25.585Z,4.80
2023-02-12T03:19:59.329Z,4.80
2023-02-12T03:22:34.495Z,4.80
2023-02-12T03:25:14.207Z,4.80
2023-02-12T03:27:52.828Z,4.80
2023-02-12T03:30:22.163Z,4.80
2023-02-12T03:32:54.521Z,4.90
2023-02-12T03:35:27.368Z,4.90
2023-02-12T03:38:23.583Z,4.90
2023-02-12T03:41:21.028Z,4.90
2023-02-12T03:44:04.284Z,4.70
2023-02-12T03:47:14.417Z,4.70
2023-02-12T03:50:01.142Z,4.70
2023-02-12T03:52:30.559Z,4.70
2023-02-12T03:54:58.047Z,4.60
2023-02-12T03:57:31.496Z,4.50
2023-02-12T04:00:01.558Z,4.60
2023-02-12T04:02:28.857Z,4.50
2023-02-12T04:04:55.794Z,4.60
2023-02-12T04:07:22.974Z,4.60
2023-02-12T04:09:50.058Z,4.60
2023-02-12T04:12:31.277Z,4.60
2023-02-12T04:15:35.516Z,4.60
2023-02-12T04:18:15.195Z,4.60
2023-02-12T04:21:03.633Z,4.50
2023-02-12T04:23:58.274Z,4.50
2023-02-12T04:26:49.755Z,4.50
2023-02-12T04:29:35.285Z,4.50
2023-02-12T04:32:15.356Z,4.50
2023-02-12T04:34:54.326Z,4.50
2023-02-12T04:37:26.251Z,4.50
2023-02-12T04:39:54.948Z,4.50
2023-02-12T04:42:22.229Z,4.50
2023-02-12T04:44:49.222Z,4.50
2023-02-12T04:47:16.930Z,4.50
2023-02-12T04:49:43.844Z,4.50
2023-02-12T04:52:11.011Z,4.50
2023-02-12T04:54:38.296Z,4.50
2023-02-12T04:57:05.519Z,4.40
2023-02-12T04:59:32.437Z,4.40
2023-02-12T05:01:59.325Z,4.40
2023-02-12T05:04:26.282Z,4.30
2023-02-12T05:06:53.269Z,4.30
2023-02-12T05:09:21.581Z,4.20
2023-02-12T05:11:48.569Z,4.30
2023-02-12T05:14:16.370Z,4.30
2023-02-12T05:16:43.513Z,4.30
2023-02-12T05:19:10.847Z,4.30
2023-02-12T05:21:38.930Z,4.20
2023-02-12T05:24:06.194Z,4.20
2023-02-12T05:26:33.210Z,4.20
2023-02-12T05:29:00.210Z,4.10
2023-02-12T05:31:27.397Z,4.10
2023-02-12T05:33:54.518Z,4.10
2023-02-12T05:36:23.598Z,4.20
2023-02-12T05:38:51.374Z,4.20
2023-02-12T05:41:21.442Z,4.30
2023-02-12T05:43:49.921Z,4.30
2023-02-12T05:46:21.388Z,4.30
2023-02-12T05:48:48.657Z,4.20
2023-02-12T05:51:22.192Z,4.10
2023-02-12T05:53:51.008Z,4.10
2023-02-12T05:56:20.832Z,4.00
2023-02-12T05:58:52.608Z,4.10
2023-02-12T06:01:23.729Z,4.10
2023-02-12T06:03:50.703Z,4.10
2023-02-12T06:06:17.717Z,4.20
2023-02-12T06:08:47.642Z,4.20
2023-02-12T06:11:16.154Z,4.20
2023-02-12T06:13:43.596Z,4.20
2023-02-12T06:16:25.691Z,4.30
2023-02-12T06:18:53.809Z,4.30
2023-02-12T06:21:22.362Z,4.20
2023-02-12T06:23:49.678Z,4.20
2023-02-12T06:26:17.199Z,4.20
2023-02-12T06:28:45.167Z,4.30
2023-02-12T06:31:30.316Z,4.20
2023-02-12T06:33:59.648Z,4.30
2023-02-12T06:36:27.097Z,4.30
2023-02-12T06:38:54.323Z,4.30
2023-02-12T06:41:22.048Z,4.30
2023-02-12T06:43:49.350Z,4.30
2023-02-12T06:46:16.821Z,4.20
2023-02-12T06:48:43.861Z,4.20
2023-02-12T06:51:16.655Z,4.20
2023-02-12T06:53:44.386Z,4.20
2023-02-12T06:56:13.484Z,4.20
2023-02-12T06:58:42.130Z,4.30
2023-02-12T07:01:19.955Z,4.20
2023-02-12T07:03:58.610Z,4.30
2023-02-12T07:06:27.287Z,4.40
2023-02-12T07:08:55.650Z,4.40
2023-02-12T07:11:28.367Z,4.40
2023-02-12T07:13:55.647Z,4.40
2023-02-12T07:16:23.235Z,4.30
2023-02-12T07:18:50.614Z,4.30
2023-02-12T07:21:21.774Z,4.30
2023-02-12T07:23:51.575Z,4.40
2023-02-12T07:26:20.260Z,4.40
2023-02-12T07:28:47.255Z,4.50
2023-02-12T07:31:17.502Z,4.50
2023-02-12T07:33:45.255Z,4.50
2023-02-12T07:36:17.577Z,4.60
2023-02-12T07:38:44.692Z,4.60
2023-02-12T07:41:21.896Z,4.50
2023-02-12T07:43:54.056Z,4.50
2023-02-12T07:46:29.847Z,4.40
2023-02-12T07:49:03.003Z,4.40
2023-02-12T07:51:29.985Z,4.40
2023-02-12T07:53:57.204Z,4.40
2023-02-12T07:56:32.652Z,4.40
2023-02-12T07:59:01.896Z,4.40
2023-02-12T08:01:34.772Z,4.50
2023-02-12T08:04:04.840Z,4.60
2023-02-12T08:06:34.982Z,4.60
2023-02-12T08:09:04.315Z,4.60
2023-02-12T08:11:31.909Z,4.60
2023-02-12T08:13:59.829Z,4.60
2023-02-12T08:16:29.179Z,4.60
2023-02-12T08:19:07.206Z,4.70
2023-02-12T08:21:41.891Z,4.80
2023-02-12T08:24:11.009Z,4.90
2023-02-12T08:26:40.000Z,4.90
2023-02-12T08:29:12.695Z,5.00
2023-02-12T08:31:43.371Z,5.10
2023-02-12T08:34:22.988Z,5.20
2023-02-12T08:36:52.179Z,5.30
2023-02-12T08:39:20.115Z,5.40
2023-02-12T08:41:48.303Z,5.50
2023-02-12T08:44:16.404Z,5.60
2023-02-12T08:46:48.774Z,5.70
2023-02-12T08:49:22.476Z,5.80
2023-02-12T08:51:53.374Z,5.90
2023-02-12T08:54:23.947Z,6.10
2023-02-12T08:56:54.418Z,6.10
2023-02-12T08:59:21.371Z,6.20
2023-02-12T09:01:51.293Z,6.30
2023-02-12T09:04:22.144Z,6.30
2023-02-12T09:06:50.456Z,6.40
2023-02-12T09:09:18.021Z,6.40
2023-02-12T09:11:45.184Z,6.50
2023-02-12T09:14:15.801Z,6.60
2023-02-12T09:16:43.037Z,6.60
2023-02-12T09:19:13.339Z,6.70
2023-02-12T09:21:40.676Z,6.70
2023-02-12T09:24:08.110Z,6.80
2023-02-12T09:26:35.078Z,6.80
2023-02-12T09:29:04.172Z,6.90
2023-02-12T09:31:32.981Z,7.00
2023-02-12T09:34:02.966Z,7.00
2023-02-12T09:36:31.015Z,7.20
2023-02-12T09:38:59.567Z,7.30
2023-02-12T09:41:45.852Z,7.30
2023-02-12T09:44:21.727Z,7.30
2023-02-12T09:47:15.805Z,7.40
2023-02-12T09:50:17.165Z,7.50
2023-02-12T09:52:44.587Z,7.60
2023-02-12T09:55:16.986Z,7.70
2023-02-12T09:57:44.912Z,7.70
2023-02-12T10:00:18.927Z,7.90
2023-02-12T10:02:46.809Z,8.00
2023-02-12T10:05:19.994Z,8.10
2023-02-12T10:08:16.409Z,8.20
2023-02-12T10:10:48.992Z,8.50
2023-02-12T10:13:25.529Z,8.70
2023-02-12T10:16:21.057Z,8.80
2023-02-12T10:19:14.332Z,9.00
2023-02-12T10:21:51.265Z,9.30
2023-02-12T10:24:26.928Z,9.40
2023-02-12T10:26:58.884Z,9.60
2023-02-12T10:29:31.396Z,9.80
2023-02-12T10:32:05.822Z,10.10
2023-02-12T10:34:37.170Z,10.30
2023-02-12T10:37:19.026Z,10.50
2023-02-12T10:39:54.745Z,10.80
2023-02-12T10:42:38.204Z,11.00
2023-02-12T10:45:06.463Z,11.20
2023-02-12T10:47:33.365Z,11.40
2023-02-12T10:50:02.820Z,11.60
2023-02-12T10:52:47.775Z,11.80
2023-02-12T16:01:02.131Z,14.30
2023-02-12T16:03:31.785Z,14.20
2023-02-12T16:06:11.660Z,13.80
2023-02-12T16:08:40.868Z,13.50
2023-02-12T16:11:15.035Z,13.20
2023-02-12T16:13:54.907Z,13.00
2023-02-12T16:16:30.509Z,12.80
2023-02-12T16:19:08.330Z,12.60
2023-02-12T16:21:38.741Z,12.40
2023-02-12T16:24:19.532Z,12.30
2023-02-12T16:26:48.028Z,12.10
2023-02-12T16:29:18.188Z,11.90
2023-02-12T16:32:01.162Z,11.80
2023-02-12T16:34:31.339Z,11.70
2023-02-12T16:36:58.577Z,11.50
2023-02-12T16:39:53.449Z,11.40
2023-02-12T16:42:24.864Z,11.30
2023-02-12T16:44:51.786Z,11.20
2023-02-12T16:47:24.029Z,11.10
2023-02-12T16:50:02.068Z,11.00
2023-02-12T16:52:42.003Z,10.90
2023-02-12T16:55:17.869Z,10.80
2023-02-12T16:57:45.447Z,10.70
2023-02-12T17:00:16.861Z,10.60
2023-02-12T17:02:44.076Z,10.50
2023-02-12T17:05:11.460Z,10.40
2023-02-12T17:07:38.389Z,10.30
2023-02-12T17:10:05.876Z,10.30
2023-02-12T17:12:32.925Z,10.20
2023-02-12T17:15:04.543Z,10.10
2023-02-12T17:17:31.432Z,10.10
2023-02-12T17:19:58.427Z,10.00
2023-02-12T17:22:27.753Z,9.90
2023-02-12T17:24:54.896Z,9.90
2023-02-12T17:27:21.983Z,9.90
2023-02-12T17:29:48.950Z,9.80
2023-02-12T17:32:16.406Z,9.80
2023-02-12T17:34:48.756Z,9.70
2023-02-12T17:37:18.147Z,9.60
2023-02-12T17:39:45.316Z,9.60
2023-02-12T17:42:12.264Z,9.60
2023-02-12T17:44:40.225Z,9.50
2023-02-12T17:47:07.213Z,9.50
2023-02-12T17:49:38.809Z,9.40
2023-02-12T17:52:07.419Z,9.40
2023-02-12T17:54:34.809Z,9.30
2023-02-12T17:57:01.839Z,9.30
2023-02-12T17:59:29.429Z,9.20
2023-02-12T18:01:56.647Z,9.10
2023-02-12T18:04:23.609Z,9.10
2023-02-12T18:06:50.611Z,9.10
2023-02-12T18:09:17.584Z,9.00
2023-02-12T18:11:44.446Z,9.00
2023-02-12T18:14:12.045Z,8.90
2023-02-12T18:16:39.113Z,9.00
2023-02-12T18:19:06.494Z,8.90
2023-02-12T18:21:38.354Z,8.90
2023-02-12T18:24:08.779Z,8.90
2023-02-12T18:26:35.737Z,8.80
2023-02-12T18:29:02.768Z,8.80
2023-02-12T18:31:30.553Z,8.80
2023-02-12T18:33:57.716Z,8.80
2023-02-12T18:36:24.863Z,8.70
2023-02-12T18:38:52.714Z,8.70
2023-02-12T18:41:28.189Z,8.60
2023-02-12T18:43:56.848Z,8.60
2023-02-12T18:46:27.250Z,8.60
2023-02-12T18:48:54.885Z,8.50
2023-02-12T18:51:25.497Z,8.50
2023-02-12T18:53:57.357Z,8.50
2023-02-12T18:56:24.558Z,8.60
2023-02-12T18:58:59.361Z,8.50
2023-02-12T19:01:28.170Z,8.40
2023-02-12T19:03:57.627Z,8.40
2023-02-12T19:06:24.669Z,8.40
2023-02-12T19:08:59.589Z,8.40
2023-02-12T19:11:27.598Z,8.40
2023-02-12T19:13:55.359Z,8.40
2023-02-12T19:16:24.036Z,8.30
2023-02-12T19:18:55.028Z,8.30
2023-02-12T19:21:26.366Z,8.20
2023-02-12T19:23:55.197Z,8.10
2023-02-12T19:26:22.944Z,8.10
2023-02-12T19:28:50.146Z,8.10
2023-02-12T19:31:18.790Z,8.10
2023-02-12T19:33:47.499Z,8.00
2023-02-12T19:36:18.344Z,8.00
2023-02-12T19:38:46.552Z,8.00
2023-02-12T19:41:19.050Z,7.90
2023-02-12T19:43:46.333Z,7.80
2023-02-12T19:46:15.983Z,7.80
2023-02-12T19:48:44.309Z,7.70
2023-02-12T19:51:19.787Z,7.80
2023-02-12T19:53:47.913Z,7.70
2023-02-12T19:56:16.100Z,7.70
2023-02-12T19:58:43.512Z,7.80
2023-02-12T20:01:13.273Z,7.80
2023-02-12T20:03:40.998Z,7.70
2023-02-12T20:06:10.840Z,7.80
2023-02-12T20:08:39.461Z,7.70
2023-02-12T20:11:28.892Z,7.70
2023-02-12T20:13:56.785Z,7.70
2023-02-12T20:16:26.772Z,7.60
2023-02-12T20:18:55.007Z,7.60
2023-02-12T20:21:25.091Z,7.60
2023-02-12T20:23:52.457Z,7.50
2023-02-12T20:26:20.230Z,7.60
2023-02-12T20:28:48.526Z,7.60
2023-02-12T20:31:24.281Z,7.60
2023-02-12T20:34:06.801Z,7.50
2023-02-12T20:36:36.852Z,7.50
2023-02-12T20:39:05.700Z,7.50
2023-02-12T20:41:35.093Z,7.40
2023-02-12T20:44:02.153Z,7.40
2023-02-12T20:46:29.531Z,7.30
2023-02-12T20:48:57.701Z,7.30
2023-02-12T20:51:27.575Z,7.40
2023-02-12T20:53:55.627Z,7.40
2023-02-12T20:56:27.604Z,7.40
2023-02-12T20:58:54.937Z,7.40
2023-02-12T21:01:29.490Z,7.40
2023-02-12T21:03:56.611Z,7.40
2023-02-12T21:06:24.930Z,7.30
2023-02-12T21:08:51.977Z,7.30
2023-02-12T21:11:26.624Z,7.30
2023-02-12T21:13:59.406Z,7.30
2023-02-12T21:16:32.371Z,7.30
2023-02-12T21:18:59.779Z,7.40
2023-02-12T21:21:29.357Z,7.30
2023-02-12T21:23:58.371Z,7.30
2023-02-12T21:26:27.122Z,7.30
2023-02-12T21:28:56.446Z,7.30
2023-02-12T21:31:29.202Z,7.30
2023-02-12T21:33:58.126Z,7.30
2023-02-12T21:36:36.442Z,7.30
2023-02-12T21:39:05.553Z,7.30
2023-02-12T21:41:35.809Z,7.30
2023-02-12T21:44:05.635Z,7.30
2023-02-12T21:46:33.664Z,7.30
2023-02-12T21:49:00.980Z,7.30
2023-02-12T21:51:30.886Z,7.20
2023-02-12T21:54:00.515Z,7.20
2023-02-12T21:56:28.451Z,7.10
2023-02-12T21:58:57.702Z,7.00
2023-02-12T22:01:32.358Z,7.00
2023-02-12T22:04:01.401Z,7.00
2023-02-12T22:06:28.910Z,7.00
2023-02-12T22:09:00.669Z,7.00
2023-02-12T22:11:27.790Z,6.90
2023-02-12T22:13:54.746Z,7.00
2023-02-12T22:16:23.648Z,7.00
2023-02-12T22:18:55.551Z,7.00
2023-02-12T22:21:24.149Z,7.00
2023-02-12T22:23:51.578Z,7.00
2023-02-12T22:26:25.318Z,7.00
2023-02-12T22:28:57.929Z,7.00
2023-02-12T22:31:29.459Z,7.00
2023-02-12T22:33:59.488Z,7.00
2023-02-12T22:36:27.516Z,7.00
2023-02-12T22:38:57.553Z,7.00
2023-02-12T22:41:24.986Z,7.00
2023-02-12T22:43:52.427Z,6.90
2023-02-12T22:46:20.271Z,6.90
2023-02-12T22:48:47.228Z,6.80
2023-02-12T22:51:26.313Z,6.80
2023-02-12T22:53:54.389Z,6.70
2023-02-12T22:56:22.286Z,6.80
2023-02-12T22:58:53.623Z,6.70
2023-02-12T23:01:21.247Z,6.70
2023-02-12T23:03:48.395Z,6.70
2023-02-12T23:06:19.062Z,6.70
2023-02-12T23:08:50.977Z,6.70
2023-02-12T23:11:19.181Z,6.70
2023-02-12T23:13:46.828Z,6.60
2023-02-12T23:16:13.950Z,6.60
2023-02-12T23:18:40.988Z,6.60
2023-02-12T23:21:08.321Z,6.60
2023-02-12T23:23:35.359Z,6.60
2023-02-12T23:26:02.752Z,6.60
2023-02-12T23:28:31.081Z,6.60
2023-02-12T23:30:58.850Z,6.70
2023-02-12T23:33:26.171Z,6.70
2023-02-12T23:35:53.168Z,6.70
2023-02-12T23:38:20.137Z,6.70
2023-02-12T23:40:48.469Z,6.70
2023-02-12T23:43:15.943Z,6.70
2023-02-12T23:45:46.961Z,6.70
2023-02-12T23:48:14.218Z,6.70
2023-02-12T23:50:41.622Z,6.60
2023-02-12T23:53:10.250Z,6.60
2023-02-12T23:55:37.978Z,6.60
2023-02-12T23:58:06.339Z,6.60
